sensor_id;sensor_type;location;lat;lon;timestamp;temperature;humidity
69162;DHT22;56269;51.738;21.652;2023-06-22T00:00:53;19.33;99.76
69162;DHT22;56269;51.738;21.652;2023-06-22T00:03:30;19.30;99.69
69162;DHT22;56269;51.738;21.652;2023-06-22T00:05:57;19.33;98.97
69162;DHT22;56269;51.738;21.652;2023-06-22T00:08:23;19.19;99.54
69162;DHT22;56269;51.738;21.652;2023-06-22T00:10:49;19.15;99.50
69162;DHT22;56269;51.738;21.652;2023-06-22T00:13:17;19.15;99.37
69162;DHT22;56269;51.738;21.652;2023-06-22T00:15:44;19.20;99.00
69162;DHT22;56269;51.738;21.652;2023-06-22T00:18:10;19.19;99.13
69162;DHT22;56269;51.738;21.652;2023-06-22T00:20:37;19.15;98.99
69162;DHT22;56269;51.738;21.652;2023-06-22T00:23:04;19.03;99.89
69162;DHT22;56269;51.738;21.652;2023-06-22T00:25:35;19.00;99.47
69162;DHT22;56269;51.738;21.652;2023-06-22T00:28:02;18.81;99.99
69162;DHT22;56269;51.738;21.652;2023-06-22T00:30:31;18.61;99.99
69162;DHT22;56269;51.738;21.652;2023-06-22T00:32:57;18.47;99.99
69162;DHT22;56269;51.738;21.652;2023-06-22T00:35:25;18.58;99.99
69162;DHT22;56269;51.738;21.652;2023-06-22T00:37:58;18.67;99.99
69162;DHT22;56269;51.738;21.652;2023-06-22T00:40:27;18.91;99.77
69162;DHT22;56269;51.738;21.652;2023-06-22T00:42:55;18.94;99.40
69162;DHT22;56269;51.738;21.652;2023-06-22T00:45:25;18.61;99.99
69162;DHT22;56269;51.738;21.652;2023-06-22T00:47:52;18.40;99.99
69162;DHT22;56269;51.738;21.652;2023-06-22T00:50:20;18.27;99.99
69162;DHT22;56269;51.738;21.652;2023-06-22T00:52:51;18.11;99.99
69162;DHT22;56269;51.738;21.652;2023-06-22T00:55:20;18.00;99.99
69162;DHT22;56269;51.738;21.652;2023-06-22T00:57:46;17.86;99.99
69162;DHT22;56269;51.738;21.652;2023-06-22T01:00:14;17.69;99.99
69162;DHT22;56269;51.738;21.652;2023-06-22T01:02:46;17.66;99.99
69162;DHT22;56269;51.738;21.652;2023-06-22T01:05:14;17.61;99.99
69162;DHT22;56269;51.738;21.652;2023-06-22T01:13:08;17.52;99.99
69162;DHT22;56269;51.738;21.652;2023-06-22T01:15:45;17.45;99.99
69162;DHT22;56269;51.738;21.652;2023-06-22T01:18:13;17.35;99.99
69162;DHT22;56269;51.738;21.652;2023-06-22T01:20:40;17.35;99.99
69162;DHT22;56269;51.738;21.652;2023-06-22T01:23:31;17.22;99.99
69162;DHT22;56269;51.738;21.652;2023-06-22T01:28:42;16.98;99.99
69162;DHT22;56269;51.738;21.652;2023-06-22T01:31:11;16.95;99.99
69162;DHT22;56269;51.738;21.652;2023-06-22T01:33:41;17.05;99.99
69162;DHT22;56269;51.738;21.652;2023-06-22T01:36:08;16.98;99.99
69162;DHT22;56269;51.738;21.652;2023-06-22T01:38:36;16.87;99.99
69162;DHT22;56269;51.738;21.652;2023-06-22T01:41:04;16.94;99.99
69162;DHT22;56269;51.738;21.652;2023-06-22T01:43:30;16.92;99.99
69162;DHT22;56269;51.738;21.652;2023-06-22T01:45:58;16.87;99.99
69162;DHT22;56269;51.738;21.652;2023-06-22T01:48:24;16.89;99.99
69162;DHT22;56269;51.738;21.652;2023-06-22T01:50:52;16.95;99.99
69162;DHT22;56269;51.738;21.652;2023-06-22T01:53:22;16.89;99.99
69162;DHT22;56269;51.738;21.652;2023-06-22T01:55:49;16.87;99.99
69162;DHT22;56269;51.738;21.652;2023-06-22T01:58:15;16.80;99.99
69162;DHT22;56269;51.738;21.652;2023-06-22T02:00:50;16.85;99.99
69162;DHT22;56269;51.738;21.652;2023-06-22T02:03:21;16.92;99.99
69162;DHT22;56269;51.738;21.652;2023-06-22T02:06:11;16.73;99.99
69162;DHT22;56269;51.738;21.652;2023-06-22T02:08:43;16.64;99.99
69162;DHT22;56269;51.738;21.652;2023-06-22T02:11:13;16.60;99.99
69162;DHT22;56269;51.738;21.652;2023-06-22T02:13:40;16.57;99.99
69162;DHT22;56269;51.738;21.652;2023-06-22T02:16:11;16.63;99.99
69162;DHT22;56269;51.738;21.652;2023-06-22T02:18:39;16.75;99.99
69162;DHT22;56269;51.738;21.652;2023-06-22T02:21:06;16.75;99.99
69162;DHT22;56269;51.738;21.652;2023-06-22T02:23:32;16.71;99.99
69162;DHT22;56269;51.738;21.652;2023-06-22T02:26:02;16.87;99.99
69162;DHT22;56269;51.738;21.652;2023-06-22T02:28:29;17.02;99.99
69162;DHT22;56269;51.738;21.652;2023-06-22T02:30:55;17.05;99.99
69162;DHT22;56269;51.738;21.652;2023-06-22T02:33:21;17.08;99.99
69162;DHT22;56269;51.738;21.652;2023-06-22T02:35:47;17.10;99.99
69162;DHT22;56269;51.738;21.652;2023-06-22T02:38:14;17.16;99.99
69162;DHT22;56269;51.738;21.652;2023-06-22T02:40:41;17.28;99.99
69162;DHT22;56269;51.738;21.652;2023-06-22T02:43:07;17.31;99.99
69162;DHT22;56269;51.738;21.652;2023-06-22T02:45:33;17.32;99.99
69162;DHT22;56269;51.738;21.652;2023-06-22T02:47:59;17.35;99.99
69162;DHT22;56269;51.738;21.652;2023-06-22T02:50:25;17.52;99.99
69162;DHT22;56269;51.738;21.652;2023-06-22T02:52:51;17.65;99.99
69162;DHT22;56269;51.738;21.652;2023-06-22T02:55:18;17.76;99.99
69162;DHT22;56269;51.738;21.652;2023-06-22T02:57:44;17.90;99.99
69162;DHT22;56269;51.738;21.652;2023-06-22T03:00:13;17.96;99.99
69162;DHT22;56269;51.738;21.652;2023-06-22T03:02:44;18.10;99.99
69162;DHT22;56269;51.738;21.652;2023-06-22T03:05:11;18.24;99.99
69162;DHT22;56269;51.738;21.652;2023-06-22T03:07:42;18.34;99.99
69162;DHT22;56269;51.738;21.652;2023-06-22T03:10:10;18.45;99.99
69162;DHT22;56269;51.738;21.652;2023-06-22T03:12:40;18.59;99.99
69162;DHT22;56269;51.738;21.652;2023-06-22T03:15:08;18.65;99.99
69162;DHT22;56269;51.738;21.652;2023-06-22T03:17:35;18.75;99.99
69162;DHT22;56269;51.738;21.652;2023-06-22T03:20:02;18.84;99.99
69162;DHT22;56269;51.738;21.652;2023-06-22T03:22:40;18.91;99.99
69162;DHT22;56269;51.738;21.652;2023-06-22T03:25:08;18.98;99.99
69162;DHT22;56269;51.738;21.652;2023-06-22T03:27:42;19.08;99.99
69162;DHT22;56269;51.738;21.652;2023-06-22T03:30:11;19.19;99.99
69162;DHT22;56269;51.738;21.652;2023-06-22T03:32:37;19.29;99.90
69162;DHT22;56269;51.738;21.652;2023-06-22T03:35:04;19.36;99.73
69162;DHT22;56269;51.738;21.652;2023-06-22T03:37:31;19.40;99.70
69162;DHT22;56269;51.738;21.652;2023-06-22T03:39:58;19.50;99.65
69162;DHT22;56269;51.738;21.652;2023-06-22T03:42:24;19.54;99.37
69162;DHT22;56269;51.738;21.652;2023-06-22T03:44:50;19.60;99.22
69162;DHT22;56269;51.738;21.652;2023-06-22T03:47:17;19.70;99.27
69162;DHT22;56269;51.738;21.652;2023-06-22T03:49:43;19.80;98.97
69162;DHT22;56269;51.738;21.652;2023-06-22T03:52:09;19.88;98.66
69162;DHT22;56269;51.738;21.652;2023-06-22T03:54:36;20.00;98.45
69162;DHT22;56269;51.738;21.652;2023-06-22T03:57:03;20.01;97.87
69162;DHT22;56269;51.738;21.652;2023-06-22T03:59:29;20.05;97.78
69162;DHT22;56269;51.738;21.652;2023-06-22T04:01:55;20.17;97.66
69162;DHT22;56269;51.738;21.652;2023-06-22T04:04:21;20.32;97.15
69162;DHT22;56269;51.738;21.652;2023-06-22T04:06:47;20.56;96.60
69162;DHT22;56269;51.738;21.652;2023-06-22T04:09:14;20.73;95.70
69162;DHT22;56269;51.738;21.652;2023-06-22T04:11:40;20.96;94.95
69162;DHT22;56269;51.738;21.652;2023-06-22T04:14:06;21.10;94.61
69162;DHT22;56269;51.738;21.652;2023-06-22T04:16:33;21.20;95.00
69162;DHT22;56269;51.738;21.652;2023-06-22T04:18:59;21.33;94.38
69162;DHT22;56269;51.738;21.652;2023-06-22T04:21:25;21.34;94.22
69162;DHT22;56269;51.738;21.652;2023-06-22T04:23:51;21.19;94.34
69162;DHT22;56269;51.738;21.652;2023-06-22T04:26:17;21.11;95.15
69162;DHT22;56269;51.738;21.652;2023-06-22T04:28:47;21.01;95.46
69162;DHT22;56269;51.738;21.652;2023-06-22T04:31:17;21.23;95.23
69162;DHT22;56269;51.738;21.652;2023-06-22T04:33:48;21.27;94.97
69162;DHT22;56269;51.738;21.652;2023-06-22T04:36:17;21.38;94.84
69162;DHT22;56269;51.738;21.652;2023-06-22T04:38:43;21.35;94.96
69162;DHT22;56269;51.738;21.652;2023-06-22T04:41:10;21.35;94.95
69162;DHT22;56269;51.738;21.652;2023-06-22T04:43:40;21.35;94.86
69162;DHT22;56269;51.738;21.652;2023-06-22T04:46:06;21.31;94.75
69162;DHT22;56269;51.738;21.652;2023-06-22T04:48:32;21.14;95.41
69162;DHT22;56269;51.738;21.652;2023-06-22T04:50:59;21.21;96.02
69162;DHT22;56269;51.738;21.652;2023-06-22T04:53:30;21.08;95.73
69162;DHT22;56269;51.738;21.652;2023-06-22T04:55:57;21.14;96.14
69162;DHT22;56269;51.738;21.652;2023-06-22T04:58:23;21.35;95.44
69162;DHT22;56269;51.738;21.652;2023-06-22T05:00:54;21.65;94.72
69162;DHT22;56269;51.738;21.652;2023-06-22T05:03:24;21.75;94.91
69162;DHT22;56269;51.738;21.652;2023-06-22T05:05:52;22.20;92.97
69162;DHT22;56269;51.738;21.652;2023-06-22T05:08:19;21.93;93.76
69162;DHT22;56269;51.738;21.652;2023-06-22T05:10:45;21.84;94.49
69162;DHT22;56269;51.738;21.652;2023-06-22T05:13:12;21.74;94.77
69162;DHT22;56269;51.738;21.652;2023-06-22T05:15:38;21.65;95.19
69162;DHT22;56269;51.738;21.652;2023-06-22T05:18:06;21.81;94.67
69162;DHT22;56269;51.738;21.652;2023-06-22T05:20:32;21.78;94.25
69162;DHT22;56269;51.738;21.652;2023-06-22T05:23:02;21.86;93.99
69162;DHT22;56269;51.738;21.652;2023-06-22T05:25:28;21.78;94.94
69162;DHT22;56269;51.738;21.652;2023-06-22T05:27:55;21.65;94.32
69162;DHT22;56269;51.738;21.652;2023-06-22T05:30:21;21.68;94.24
69162;DHT22;56269;51.738;21.652;2023-06-22T05:32:48;21.92;93.74
69162;DHT22;56269;51.738;21.652;2023-06-22T05:35:14;22.05;94.06
69162;DHT22;56269;51.738;21.652;2023-06-22T05:37:40;22.37;92.78
69162;DHT22;56269;51.738;21.652;2023-06-22T05:40:07;22.56;92.11
69162;DHT22;56269;51.738;21.652;2023-06-22T05:42:33;22.59;92.05
69162;DHT22;56269;51.738;21.652;2023-06-22T05:44:59;22.78;92.10
69162;DHT22;56269;51.738;21.652;2023-06-22T05:47:25;23.11;90.39
69162;DHT22;56269;51.738;21.652;2023-06-22T05:49:51;23.05;90.66
69162;DHT22;56269;51.738;21.652;2023-06-22T05:52:18;22.73;91.49
69162;DHT22;56269;51.738;21.652;2023-06-22T05:54:44;22.57;91.96
69162;DHT22;56269;51.738;21.652;2023-06-22T05:57:10;22.56;92.05
69162;DHT22;56269;51.738;21.652;2023-06-22T05:59:36;22.33;92.23
69162;DHT22;56269;51.738;21.652;2023-06-22T06:02:02;22.12;93.27
69162;DHT22;56269;51.738;21.652;2023-06-22T06:04:28;22.20;93.75
69162;DHT22;56269;51.738;21.652;2023-06-22T06:06:55;22.10;93.16
69162;DHT22;56269;51.738;21.652;2023-06-22T06:09:21;22.08;93.84
69162;DHT22;56269;51.738;21.652;2023-06-22T06:11:47;22.17;93.19
69162;DHT22;56269;51.738;21.652;2023-06-22T06:14:13;22.22;93.10
69162;DHT22;56269;51.738;21.652;2023-06-22T06:16:39;22.26;93.09
69162;DHT22;56269;51.738;21.652;2023-06-22T06:19:05;22.42;92.86
69162;DHT22;56269;51.738;21.652;2023-06-22T06:21:31;22.52;92.70
69162;DHT22;56269;51.738;21.652;2023-06-22T06:23:57;21.98;93.66
69162;DHT22;56269;51.738;21.652;2023-06-22T06:26:24;22.02;94.02
69162;DHT22;56269;51.738;21.652;2023-06-22T06:28:56;21.81;94.40
69162;DHT22;56269;51.738;21.652;2023-06-22T06:31:23;21.44;95.48
69162;DHT22;56269;51.738;21.652;2023-06-22T06:33:49;21.34;95.93
69162;DHT22;56269;51.738;21.652;2023-06-22T06:36:16;21.10;96.81
69162;DHT22;56269;51.738;21.652;2023-06-22T06:38:42;21.19;96.60
69162;DHT22;56269;51.738;21.652;2023-06-22T06:41:08;21.24;96.35
69162;DHT22;56269;51.738;21.652;2023-06-22T06:43:34;21.31;96.11
69162;DHT22;56269;51.738;21.652;2023-06-22T06:46:00;21.35;96.05
69162;DHT22;56269;51.738;21.652;2023-06-22T06:48:28;21.34;95.66
69162;DHT22;56269;51.738;21.652;2023-06-22T06:50:55;21.31;95.72
69162;DHT22;56269;51.738;21.652;2023-06-22T06:53:21;21.41;95.42
69162;DHT22;56269;51.738;21.652;2023-06-22T06:55:47;21.34;95.65
69162;DHT22;56269;51.738;21.652;2023-06-22T06:58:13;21.55;95.57
69162;DHT22;56269;51.738;21.652;2023-06-22T07:00:39;21.50;95.10
69162;DHT22;56269;51.738;21.652;2023-06-22T07:03:05;21.44;95.54
69162;DHT22;56269;51.738;21.652;2023-06-22T07:05:33;21.21;95.87
69162;DHT22;56269;51.738;21.652;2023-06-22T07:07:59;21.37;95.73
69162;DHT22;56269;51.738;21.652;2023-06-22T07:10:25;21.51;95.26
69162;DHT22;56269;51.738;21.652;2023-06-22T07:12:51;21.58;95.19
69162;DHT22;56269;51.738;21.652;2023-06-22T07:15:17;22.08;94.50
69162;DHT22;56269;51.738;21.652;2023-06-22T07:17:43;22.19;93.16
69162;DHT22;56269;51.738;21.652;2023-06-22T07:20:10;22.02;93.95
69162;DHT22;56269;51.738;21.652;2023-06-22T07:22:38;22.17;93.33
69162;DHT22;56269;51.738;21.652;2023-06-22T07:25:05;22.40;93.27
69162;DHT22;56269;51.738;21.652;2023-06-22T07:27:37;22.52;92.88
69162;DHT22;56269;51.738;21.652;2023-06-22T07:30:05;22.70;91.58
69162;DHT22;56269;51.738;21.652;2023-06-22T07:32:32;22.86;91.33
69162;DHT22;56269;51.738;21.652;2023-06-22T07:34:58;23.01;90.20
69162;DHT22;56269;51.738;21.652;2023-06-22T07:37:24;23.15;90.39
69162;DHT22;56269;51.738;21.652;2023-06-22T07:39:50;23.17;90.22
69162;DHT22;56269;51.738;21.652;2023-06-22T07:42:19;23.62;89.25
69162;DHT22;56269;51.738;21.652;2023-06-22T07:44:45;23.25;89.78
69162;DHT22;56269;51.738;21.652;2023-06-22T07:47:11;23.10;90.91
69162;DHT22;56269;51.738;21.652;2023-06-22T07:49:37;23.52;88.74
69162;DHT22;56269;51.738;21.652;2023-06-22T07:52:04;23.48;89.91
69162;DHT22;56269;51.738;21.652;2023-06-22T07:54:31;23.29;89.32
69162;DHT22;56269;51.738;21.652;2023-06-22T07:56:57;23.34;90.27
69162;DHT22;56269;51.738;21.652;2023-06-22T07:59:23;23.54;90.01
69162;DHT22;56269;51.738;21.652;2023-06-22T08:01:49;23.66;89.02
69162;DHT22;56269;51.738;21.652;2023-06-22T08:04:16;23.63;88.75
69162;DHT22;56269;51.738;21.652;2023-06-22T08:06:42;23.80;88.11
69162;DHT22;56269;51.738;21.652;2023-06-22T08:09:09;23.72;87.69
69162;DHT22;56269;51.738;21.652;2023-06-22T08:11:35;24.20;87.21
69162;DHT22;56269;51.738;21.652;2023-06-22T08:14:01;24.87;85.87
69162;DHT22;56269;51.738;21.652;2023-06-22T08:16:27;25.05;84.02
69162;DHT22;56269;51.738;21.652;2023-06-22T08:18:54;25.40;82.80
69162;DHT22;56269;51.738;21.652;2023-06-22T08:21:20;24.89;83.34
69162;DHT22;56269;51.738;21.652;2023-06-22T08:23:47;25.32;83.93
69162;DHT22;56269;51.738;21.652;2023-06-22T08:26:14;24.92;82.42
69162;DHT22;56269;51.738;21.652;2023-06-22T08:28:41;25.08;83.30
69162;DHT22;56269;51.738;21.652;2023-06-22T08:31:07;25.07;82.86
69162;DHT22;56269;51.738;21.652;2023-06-22T08:33:33;25.19;82.71
69162;DHT22;56269;51.738;21.652;2023-06-22T08:35:59;25.58;81.39
69162;DHT22;56269;51.738;21.652;2023-06-22T08:38:26;25.45;81.45
69162;DHT22;56269;51.738;21.652;2023-06-22T08:40:52;26.30;80.04
69162;DHT22;56269;51.738;21.652;2023-06-22T08:43:18;26.76;78.48
69162;DHT22;56269;51.738;21.652;2023-06-22T08:45:44;26.92;76.80
69162;DHT22;56269;51.738;21.652;2023-06-22T08:48:11;26.28;78.76
69162;DHT22;56269;51.738;21.652;2023-06-22T08:50:37;26.68;79.10
69162;DHT22;56269;51.738;21.652;2023-06-22T08:53:03;26.28;79.26
69162;DHT22;56269;51.738;21.652;2023-06-22T08:55:29;26.28;78.09
69162;DHT22;56269;51.738;21.652;2023-06-22T08:57:56;25.04;81.93
69162;DHT22;56269;51.738;21.652;2023-06-22T09:00:21;26.30;78.43
69162;DHT22;56269;51.738;21.652;2023-06-22T09:02:48;26.05;79.47
69162;DHT22;56269;51.738;21.652;2023-06-22T09:05:15;24.96;80.34
69162;DHT22;56269;51.738;21.652;2023-06-22T09:07:42;25.71;77.35
69162;DHT22;56269;51.738;21.652;2023-06-22T09:10:09;26.08;77.87
69162;DHT22;56269;51.738;21.652;2023-06-22T09:12:35;26.73;75.35
69162;DHT22;56269;51.738;21.652;2023-06-22T09:15:03;26.13;77.63
69162;DHT22;56269;51.738;21.652;2023-06-22T09:17:30;27.24;74.26
69162;DHT22;56269;51.738;21.652;2023-06-22T09:19:56;27.60;72.43
69162;DHT22;56269;51.738;21.652;2023-06-22T09:22:23;27.27;74.18
69162;DHT22;56269;51.738;21.652;2023-06-22T09:24:50;26.82;72.15
69162;DHT22;56269;51.738;21.652;2023-06-22T09:27:16;27.74;71.05
69162;DHT22;56269;51.738;21.652;2023-06-22T09:29:42;28.08;71.57
69162;DHT22;56269;51.738;21.652;2023-06-22T09:32:09;28.84;69.57
69162;DHT22;56269;51.738;21.652;2023-06-22T09:34:35;28.82;68.46
69162;DHT22;56269;51.738;21.652;2023-06-22T09:37:01;28.77;67.74
69162;DHT22;56269;51.738;21.652;2023-06-22T09:39:28;29.18;65.43
69162;DHT22;56269;51.738;21.652;2023-06-22T09:41:54;29.30;64.37
69162;DHT22;56269;51.738;21.652;2023-06-22T09:44:20;28.94;66.35
69162;DHT22;56269;51.738;21.652;2023-06-22T09:46:46;28.02;67.22
69162;DHT22;56269;51.738;21.652;2023-06-22T09:49:12;28.83;65.97
69162;DHT22;56269;51.738;21.652;2023-06-22T09:51:39;28.65;63.84
69162;DHT22;56269;51.738;21.652;2023-06-22T09:54:04;28.97;65.55
69162;DHT22;56269;51.738;21.652;2023-06-22T09:56:31;28.90;65.88
69162;DHT22;56269;51.738;21.652;2023-06-22T09:58:57;29.14;64.29
69162;DHT22;56269;51.738;21.652;2023-06-22T10:01:23;27.47;65.60
69162;DHT22;56269;51.738;21.652;2023-06-22T10:03:53;28.29;66.77
69162;DHT22;56269;51.738;21.652;2023-06-22T10:06:22;28.84;63.41
69162;DHT22;56269;51.738;21.652;2023-06-22T10:08:51;29.41;63.69
69162;DHT22;56269;51.738;21.652;2023-06-22T10:11:17;28.87;63.22
69162;DHT22;56269;51.738;21.652;2023-06-22T10:13:43;29.02;62.65
69162;DHT22;56269;51.738;21.652;2023-06-22T10:16:10;29.38;59.68
69162;DHT22;56269;51.738;21.652;2023-06-22T10:18:36;29.35;60.41
69162;DHT22;56269;51.738;21.652;2023-06-22T10:21:02;30.20;61.64
69162;DHT22;56269;51.738;21.652;2023-06-22T10:23:28;29.89;58.90
69162;DHT22;56269;51.738;21.652;2023-06-22T10:25:55;30.05;59.36
69162;DHT22;56269;51.738;21.652;2023-06-22T10:28:23;30.30;56.79
69162;DHT22;56269;51.738;21.652;2023-06-22T10:30:50;29.81;56.48
69162;DHT22;56269;51.738;21.652;2023-06-22T10:33:16;28.29;58.99
69162;DHT22;56269;51.738;21.652;2023-06-22T10:35:42;29.06;56.63
69162;DHT22;56269;51.738;21.652;2023-06-22T10:38:08;29.13;57.69
69162;DHT22;56269;51.738;21.652;2023-06-22T10:40:34;29.78;54.98
69162;DHT22;56269;51.738;21.652;2023-06-22T10:43:00;29.31;53.87
69162;DHT22;56269;51.738;21.652;2023-06-22T10:45:27;28.82;55.83
69162;DHT22;56269;51.738;21.652;2023-06-22T10:47:53;29.24;54.80
69162;DHT22;56269;51.738;21.652;2023-06-22T10:50:19;29.04;53.91
69162;DHT22;56269;51.738;21.652;2023-06-22T10:52:46;29.48;53.32
69162;DHT22;56269;51.738;21.652;2023-06-22T10:55:12;30.57;55.36
69162;DHT22;56269;51.738;21.652;2023-06-22T10:57:38;29.65;52.31
69162;DHT22;56269;51.738;21.652;2023-06-22T11:00:08;30.23;52.64
69162;DHT22;56269;51.738;21.652;2023-06-22T11:02:34;30.02;52.56
69162;DHT22;56269;51.738;21.652;2023-06-22T11:05:01;30.27;50.43
69162;DHT22;56269;51.738;21.652;2023-06-22T11:07:27;30.12;51.59
69162;DHT22;56269;51.738;21.652;2023-06-22T11:09:55;30.02;49.71
69162;DHT22;56269;51.738;21.652;2023-06-22T11:12:21;29.74;50.33
69162;DHT22;56269;51.738;21.652;2023-06-22T11:14:47;30.12;52.97
69162;DHT22;56269;51.738;21.652;2023-06-22T11:17:15;30.04;49.05
69162;DHT22;56269;51.738;21.652;2023-06-22T11:19:42;29.30;50.34
69162;DHT22;56269;51.738;21.652;2023-06-22T11:22:08;29.33;51.42
69162;DHT22;56269;51.738;21.652;2023-06-22T11:24:34;29.74;51.90
69162;DHT22;56269;51.738;21.652;2023-06-22T11:27:00;30.50;50.75
69162;DHT22;56269;51.738;21.652;2023-06-22T11:29:26;30.36;49.94
69162;DHT22;56269;51.738;21.652;2023-06-22T11:31:52;30.64;48.04
69162;DHT22;56269;51.738;21.652;2023-06-22T11:34:19;29.74;46.23
69162;DHT22;56269;51.738;21.652;2023-06-22T11:36:45;29.02;48.20
69162;DHT22;56269;51.738;21.652;2023-06-22T11:39:11;29.27;49.65
69162;DHT22;56269;51.738;21.652;2023-06-22T11:41:41;29.51;49.60
69162;DHT22;56269;51.738;21.652;2023-06-22T11:44:08;29.74;50.55
69162;DHT22;56269;51.738;21.652;2023-06-22T11:46:34;29.64;49.09
69162;DHT22;56269;51.738;21.652;2023-06-22T11:49:01;30.27;50.31
69162;DHT22;56269;51.738;21.652;2023-06-22T11:51:27;30.16;49.36
69162;DHT22;56269;51.738;21.652;2023-06-22T11:53:54;29.90;47.02
69162;DHT22;56269;51.738;21.652;2023-06-22T11:56:20;30.32;46.14
69162;DHT22;56269;51.738;21.652;2023-06-22T11:58:46;29.57;47.22
69162;DHT22;56269;51.738;21.652;2023-06-22T12:01:12;30.20;47.73
69162;DHT22;56269;51.738;21.652;2023-06-22T12:03:41;30.80;46.75
69162;DHT22;56269;51.738;21.652;2023-06-22T12:06:09;30.60;46.28
69162;DHT22;56269;51.738;21.652;2023-06-22T12:08:36;30.78;44.43
69162;DHT22;56269;51.738;21.652;2023-06-22T12:11:02;31.12;45.69
69162;DHT22;56269;51.738;21.652;2023-06-22T12:13:28;31.29;45.11
69162;DHT22;56269;51.738;21.652;2023-06-22T12:15:54;30.91;45.54
69162;DHT22;56269;51.738;21.652;2023-06-22T12:18:20;30.43;47.54
69162;DHT22;56269;51.738;21.652;2023-06-22T12:20:47;31.04;49.13
69162;DHT22;56269;51.738;21.652;2023-06-22T12:23:14;31.22;48.49
69162;DHT22;56269;51.738;21.652;2023-06-22T12:25:42;30.84;47.15
69162;DHT22;56269;51.738;21.652;2023-06-22T12:28:09;30.83;47.44
69162;DHT22;56269;51.738;21.652;2023-06-22T12:30:35;31.24;48.97
69162;DHT22;56269;51.738;21.652;2023-06-22T12:33:01;30.80;47.75
69162;DHT22;56269;51.738;21.652;2023-06-22T12:35:27;29.48;50.10
69162;DHT22;56269;51.738;21.652;2023-06-22T12:37:54;29.18;51.81
69162;DHT22;56269;51.738;21.652;2023-06-22T12:40:20;30.27;50.25
69162;DHT22;56269;51.738;21.652;2023-06-22T12:42:46;30.30;46.30
69162;DHT22;56269;51.738;21.652;2023-06-22T12:45:12;30.57;44.98
69162;DHT22;56269;51.738;21.652;2023-06-22T12:47:38;30.10;44.21
69162;DHT22;56269;51.738;21.652;2023-06-22T12:50:05;30.12;45.83
69162;DHT22;56269;51.738;21.652;2023-06-22T12:52:31;30.53;44.18
69162;DHT22;56269;51.738;21.652;2023-06-22T12:54:58;30.87;42.46
69162;DHT22;56269;51.738;21.652;2023-06-22T12:57:24;31.11;44.09
69162;DHT22;56269;51.738;21.652;2023-06-22T12:59:51;30.77;45.15
69162;DHT22;56269;51.738;21.652;2023-06-22T13:02:17;31.45;42.86
69162;DHT22;56269;51.738;21.652;2023-06-22T13:04:43;31.63;42.55
69162;DHT22;56269;51.738;21.652;2023-06-22T13:07:10;31.37;42.67
69162;DHT22;56269;51.738;21.652;2023-06-22T13:09:36;31.21;43.76
69162;DHT22;56269;51.738;21.652;2023-06-22T13:12:03;30.40;43.87
69162;DHT22;56269;51.738;21.652;2023-06-22T13:14:29;29.68;43.93
69162;DHT22;56269;51.738;21.652;2023-06-22T13:16:55;29.54;45.07
69162;DHT22;56269;51.738;21.652;2023-06-22T13:19:21;29.99;45.15
69162;DHT22;56269;51.738;21.652;2023-06-22T13:21:48;30.08;45.34
69162;DHT22;56269;51.738;21.652;2023-06-22T13:24:14;30.59;44.28
69162;DHT22;56269;51.738;21.652;2023-06-22T13:26:40;30.92;44.25
69162;DHT22;56269;51.738;21.652;2023-06-22T13:29:06;31.50;42.26
69162;DHT22;56269;51.738;21.652;2023-06-22T13:31:33;30.98;42.17
69162;DHT22;56269;51.738;21.652;2023-06-22T13:33:59;31.27;42.96
69162;DHT22;56269;51.738;21.652;2023-06-22T13:36:25;31.22;43.30
69162;DHT22;56269;51.738;21.652;2023-06-22T13:38:51;30.84;43.80
69162;DHT22;56269;51.738;21.652;2023-06-22T13:41:17;30.50;42.92
69162;DHT22;56269;51.738;21.652;2023-06-22T13:43:44;30.77;44.09
69162;DHT22;56269;51.738;21.652;2023-06-22T13:46:10;31.17;43.45
69162;DHT22;56269;51.738;21.652;2023-06-22T13:48:36;30.40;43.86
69162;DHT22;56269;51.738;21.652;2023-06-22T13:51:02;30.52;44.53
69162;DHT22;56269;51.738;21.652;2023-06-22T13:53:28;30.36;45.09
69162;DHT22;56269;51.738;21.652;2023-06-22T13:55:55;30.64;45.87
69162;DHT22;56269;51.738;21.652;2023-06-22T13:58:21;31.01;46.58
69162;DHT22;56269;51.738;21.652;2023-06-22T14:00:48;31.10;43.86
69162;DHT22;56269;51.738;21.652;2023-06-22T14:03:14;31.07;44.29
69162;DHT22;56269;51.738;21.652;2023-06-22T14:05:43;30.94;47.17
69162;DHT22;56269;51.738;21.652;2023-06-22T14:08:09;31.08;45.86
69162;DHT22;56269;51.738;21.652;2023-06-22T14:10:35;30.92;44.36
69162;DHT22;56269;51.738;21.652;2023-06-22T14:13:01;30.94;45.83
69162;DHT22;56269;51.738;21.652;2023-06-22T14:15:28;30.48;45.14
69162;DHT22;56269;51.738;21.652;2023-06-22T14:17:53;30.44;46.71
69162;DHT22;56269;51.738;21.652;2023-06-22T14:20:20;30.59;43.82
69162;DHT22;56269;51.738;21.652;2023-06-22T14:22:46;30.08;44.83
69162;DHT22;56269;51.738;21.652;2023-06-22T14:25:12;30.01;44.80
69162;DHT22;56269;51.738;21.652;2023-06-22T14:27:38;29.75;45.97
69162;DHT22;56269;51.738;21.652;2023-06-22T14:30:05;29.76;45.09
69162;DHT22;56269;51.738;21.652;2023-06-22T14:32:31;30.05;49.11
69162;DHT22;56269;51.738;21.652;2023-06-22T14:34:58;30.44;47.12
69162;DHT22;56269;51.738;21.652;2023-06-22T14:37:24;30.66;46.29
69162;DHT22;56269;51.738;21.652;2023-06-22T14:39:50;31.07;48.17
69162;DHT22;56269;51.738;21.652;2023-06-22T14:42:16;31.24;45.99
69162;DHT22;56269;51.738;21.652;2023-06-22T14:44:42;31.29;46.05
69162;DHT22;56269;51.738;21.652;2023-06-22T14:47:08;29.68;45.39
69162;DHT22;56269;51.738;21.652;2023-06-22T14:49:35;30.16;46.05
69162;DHT22;56269;51.738;21.652;2023-06-22T14:52:01;30.09;44.47
69162;DHT22;56269;51.738;21.652;2023-06-22T14:54:28;30.23;45.08
69162;DHT22;56269;51.738;21.652;2023-06-22T14:56:54;30.37;45.58
69162;DHT22;56269;51.738;21.652;2023-06-22T14:59:20;29.89;44.07
69162;DHT22;56269;51.738;21.652;2023-06-22T15:01:46;29.89;46.18
69162;DHT22;56269;51.738;21.652;2023-06-22T15:04:12;30.29;45.47
69162;DHT22;56269;51.738;21.652;2023-06-22T15:06:38;30.48;46.31
69162;DHT22;56269;51.738;21.652;2023-06-22T15:09:04;30.12;45.88
69162;DHT22;56269;51.738;21.652;2023-06-22T15:11:30;29.81;48.25
69162;DHT22;56269;51.738;21.652;2023-06-22T15:14:00;30.12;48.01
69162;DHT22;56269;51.738;21.652;2023-06-22T15:16:26;29.88;47.49
69162;DHT22;56269;51.738;21.652;2023-06-22T15:18:53;29.79;46.25
69162;DHT22;56269;51.738;21.652;2023-06-22T15:21:19;29.64;47.36